sensor_id;sensor_type;location;lat;lon;timestamp;pressure;altitude;pressure_sealevel;temperature
67966;BMP280;54749;47.850;9.002;2023-05-07T00:00:04;95812.78;;;13.15
67966;BMP280;54749;47.850;9.002;2023-05-07T00:02:55;95808.50;;;13.16
67966;BMP280;54749;47.850;9.002;2023-05-07T00:05:22;95811.19;;;13.14
67966;BMP280;54749;47.850;9.002;2023-05-07T00:07:49;95809.97;;;13.09
67966;BMP280;54749;47.850;9.002;2023-05-07T00:10:17;95809.03;;;13.10
67966;BMP280;54749;47.850;9.002;2023-05-07T00:12:44;95812.78;;;13.06
67966;BMP280;54749;47.850;9.002;2023-05-07T00:15:11;95814.78;;;13.03
67966;BMP280;54749;47.850;9.002;2023-05-07T00:17:39;95805.69;;;13.00
67966;BMP280;54749;47.850;9.002;2023-05-07T00:20:06;95805.03;;;12.98
67966;BMP280;54749;47.850;9.002;2023-05-07T00:22:34;95799.97;;;12.98
67966;BMP280;54749;47.850;9.002;2023-05-07T00:25:01;95792.19;;;13.00
67966;BMP280;54749;47.850;9.002;2023-05-07T00:27:28;95792.09;;;13.01
67966;BMP280;54749;47.850;9.002;2023-05-07T00:29:56;95794.91;;;12.98
67966;BMP280;54749;47.850;9.002;2023-05-07T00:32:23;95798.59;;;12.95
67966;BMP280;54749;47.850;9.002;2023-05-07T00:34:50;95790.06;;;12.96
67966;BMP280;54749;47.850;9.002;2023-05-07T00:37:17;95789.25;;;12.95
67966;BMP280;54749;47.850;9.002;2023-05-07T00:39:45;95788.34;;;12.96
67966;BMP280;54749;47.850;9.002;2023-05-07T00:42:12;95790.75;;;12.97
67966;BMP280;54749;47.850;9.002;2023-05-07T00:44:40;95783.66;;;13.01
67966;BMP280;54749;47.850;9.002;2023-05-07T00:47:07;95791.16;;;13.02
67966;BMP280;54749;47.850;9.002;2023-05-07T00:49:39;95788.06;;;12.99
67966;BMP280;54749;47.850;9.002;2023-05-07T00:52:10;95792.47;;;12.97
67966;BMP280;54749;47.850;9.002;2023-05-07T00:54:38;95785.78;;;12.96
67966;BMP280;54749;47.850;9.002;2023-05-07T00:57:06;95786.88;;;12.94
67966;BMP280;54749;47.850;9.002;2023-05-07T00:59:35;95777.78;;;12.91
67966;BMP280;54749;47.850;9.002;2023-05-07T01:02:02;95782.31;;;12.88
67966;BMP280;54749;47.850;9.002;2023-05-07T01:04:30;95784.19;;;12.86
67966;BMP280;54749;47.850;9.002;2023-05-07T01:06:58;95776.84;;;12.83
67966;BMP280;54749;47.850;9.002;2023-05-07T01:09:28;95780.69;;;12.68
67966;BMP280;54749;47.850;9.002;2023-05-07T01:11:56;95787.72;;;12.56
67966;BMP280;54749;47.850;9.002;2023-05-07T01:14:24;95777.91;;;12.62
67966;BMP280;54749;47.850;9.002;2023-05-07T01:16:53;95781.78;;;12.66
67966;BMP280;54749;47.850;9.002;2023-05-07T01:19:22;95785.75;;;12.68
67966;BMP280;54749;47.850;9.002;2023-05-07T01:21:50;95783.63;;;12.73
67966;BMP280;54749;47.850;9.002;2023-05-07T01:24:20;95772.69;;;12.73
67966;BMP280;54749;47.850;9.002;2023-05-07T01:26:47;95772.69;;;12.73
67966;BMP280;54749;47.850;9.002;2023-05-07T01:29:16;95770.84;;;12.75
67966;BMP280;54749;47.850;9.002;2023-05-07T01:31:45;95780.19;;;12.74
67966;BMP280;54749;47.850;9.002;2023-05-07T01:34:17;95783.00;;;12.71
67966;BMP280;54749;47.850;9.002;2023-05-07T01:36:45;95771.13;;;12.72
67966;BMP280;54749;47.850;9.002;2023-05-07T01:39:13;95775.22;;;12.73
67966;BMP280;54749;47.850;9.002;2023-05-07T01:41:42;95771.91;;;12.72
67966;BMP280;54749;47.850;9.002;2023-05-07T01:44:12;95778.56;;;12.73
67966;BMP280;54749;47.850;9.002;2023-05-07T01:46:40;95769.91;;;12.76
67966;BMP280;54749;47.850;9.002;2023-05-07T01:49:08;95776.72;;;12.75
67966;BMP280;54749;47.850;9.002;2023-05-07T01:51:35;95766.56;;;12.75
67966;BMP280;54749;47.850;9.002;2023-05-07T01:54:02;95764.16;;;12.74
67966;BMP280;54749;47.850;9.002;2023-05-07T01:56:29;95758.56;;;12.70
67966;BMP280;54749;47.850;9.002;2023-05-07T01:58:57;95765.47;;;12.68
67966;BMP280;54749;47.850;9.002;2023-05-07T02:01:24;95770.81;;;12.65
67966;BMP280;54749;47.850;9.002;2023-05-07T02:03:52;95774.56;;;12.61
67966;BMP280;54749;47.850;9.002;2023-05-07T02:06:24;95772.66;;;12.54
67966;BMP280;54749;47.850;9.002;2023-05-07T02:08:55;95783.44;;;12.47
67966;BMP280;54749;47.850;9.002;2023-05-07T02:11:22;95769.69;;;12.40
67966;BMP280;54749;47.850;9.002;2023-05-07T02:13:50;95777.16;;;12.32
67966;BMP280;54749;47.850;9.002;2023-05-07T02:16:17;95776.59;;;12.29
67966;BMP280;54749;47.850;9.002;2023-05-07T02:18:44;95778.72;;;12.24
67966;BMP280;54749;47.850;9.002;2023-05-07T02:21:11;95782.56;;;12.19
67966;BMP280;54749;47.850;9.002;2023-05-07T02:23:38;95792.28;;;12.14
67966;BMP280;54749;47.850;9.002;2023-05-07T02:26:05;95780.13;;;12.08
67966;BMP280;54749;47.850;9.002;2023-05-07T02:28:33;95796.78;;;12.01
67966;BMP280;54749;47.850;9.002;2023-05-07T02:31:04;95790.06;;;11.91
67966;BMP280;54749;47.850;9.002;2023-05-07T02:33:32;95786.56;;;11.83
67966;BMP280;54749;47.850;9.002;2023-05-07T02:36:09;95788.25;;;11.73
67966;BMP280;54749;47.850;9.002;2023-05-07T02:38:49;95789.88;;;11.54
67966;BMP280;54749;47.850;9.002;2023-05-07T02:41:16;95789.13;;;11.43
67966;BMP280;54749;47.850;9.002;2023-05-07T02:43:44;95797.47;;;11.34
67966;BMP280;54749;47.850;9.002;2023-05-07T02:46:11;95804.28;;;11.23
67966;BMP280;54749;47.850;9.002;2023-05-07T02:48:42;95804.47;;;11.11
67966;BMP280;54749;47.850;9.002;2023-05-07T02:51:09;95807.47;;;11.05
67966;BMP280;54749;47.850;9.002;2023-05-07T02:53:39;95806.56;;;11.06
67966;BMP280;54749;47.850;9.002;2023-05-07T02:56:06;95801.50;;;11.06
67966;BMP280;54749;47.850;9.002;2023-05-07T02:58:34;95795.88;;;11.02
67966;BMP280;54749;47.850;9.002;2023-05-07T03:01:03;95811.16;;;11.01
67966;BMP280;54749;47.850;9.002;2023-05-07T03:03:46;95805.66;;;10.96
67966;BMP280;54749;47.850;9.002;2023-05-07T03:06:13;95803.41;;;10.83
67966;BMP280;54749;47.850;9.002;2023-05-07T03:08:41;95803.22;;;10.75
67966;BMP280;54749;47.850;9.002;2023-05-07T03:11:07;95811.63;;;10.75
67966;BMP280;54749;47.850;9.002;2023-05-07T03:13:35;95802.41;;;10.74
67966;BMP280;54749;47.850;9.002;2023-05-07T03:16:02;95802.78;;;10.70
67966;BMP280;54749;47.850;9.002;2023-05-07T03:18:29;95803.47;;;10.72
67966;BMP280;54749;47.850;9.002;2023-05-07T03:20:56;95801.63;;;10.74
67966;BMP280;54749;47.850;9.002;2023-05-07T03:23:24;95800.69;;;10.75
67966;BMP280;54749;47.850;9.002;2023-05-07T03:25:51;95801.41;;;10.77
67966;BMP280;54749;47.850;9.002;2023-05-07T03:28:18;95797.69;;;10.81
67966;BMP280;54749;47.850;9.002;2023-05-07T03:30:51;95792.19;;;10.76
67966;BMP280;54749;47.850;9.002;2023-05-07T03:33:19;95790.47;;;10.76
67966;BMP280;54749;47.850;9.002;2023-05-07T03:35:46;95787.94;;;10.76
67966;BMP280;54749;47.850;9.002;2023-05-07T03:38:19;95795.66;;;10.75
67966;BMP280;54749;47.850;9.002;2023-05-07T03:40:46;95803.47;;;10.72
67966;BMP280;54749;47.850;9.002;2023-05-07T03:43:14;95797.63;;;10.71
67966;BMP280;54749;47.850;9.002;2023-05-07T03:45:46;95792.91;;;10.67
67966;BMP280;54749;47.850;9.002;2023-05-07T03:48:20;95797.78;;;10.59
67966;BMP280;54749;47.850;9.002;2023-05-07T03:50:49;95800.31;;;10.59
67966;BMP280;54749;47.850;9.002;2023-05-07T03:53:18;95806.63;;;10.54
67966;BMP280;54749;47.850;9.002;2023-05-07T03:55:45;95812.84;;;10.50
67966;BMP280;54749;47.850;9.002;2023-05-07T03:58:12;95807.69;;;10.51
67966;BMP280;54749;47.850;9.002;2023-05-07T04:00:39;95815.13;;;10.53
67966;BMP280;54749;47.850;9.002;2023-05-07T04:03:21;95812.47;;;10.54
67966;BMP280;54749;47.850;9.002;2023-05-07T04:05:48;95805.72;;;10.55
67966;BMP280;54749;47.850;9.002;2023-05-07T04:08:16;95816.38;;;10.58
67966;BMP280;54749;47.850;9.002;2023-05-07T04:10:54;95810.25;;;10.61
67966;BMP280;54749;47.850;9.002;2023-05-07T04:13:23;95807.28;;;10.67
67966;BMP280;54749;47.850;9.002;2023-05-07T04:15:51;95800.69;;;10.75
67966;BMP280;54749;47.850;9.002;2023-05-07T04:18:19;95805.03;;;10.84
67966;BMP280;54749;47.850;9.002;2023-05-07T04:20:48;95800.41;;;10.99
67966;BMP280;54749;47.850;9.002;2023-05-07T04:23:16;95807.19;;;11.19
67966;BMP280;54749;47.850;9.002;2023-05-07T04:25:44;95806.34;;;11.49
67966;BMP280;54749;47.850;9.002;2023-05-07T04:28:38;95784.16;;;11.81
67966;BMP280;54749;47.850;9.002;2023-05-07T04:31:06;95791.44;;;12.04
67966;BMP280;54749;47.850;9.002;2023-05-07T04:33:36;95793.16;;;12.33
67966;BMP280;54749;47.850;9.002;2023-05-07T04:36:05;95781.72;;;12.57
67966;BMP280;54749;47.850;9.002;2023-05-07T04:38:38;95791.53;;;12.89
67966;BMP280;54749;47.850;9.002;2023-05-07T04:41:06;95776.97;;;13.18
67966;BMP280;54749;47.850;9.002;2023-05-07T04:43:37;95771.63;;;13.40
67966;BMP280;54749;47.850;9.002;2023-05-07T04:46:04;95766.91;;;13.63
67966;BMP280;54749;47.850;9.002;2023-05-07T04:48:32;95773.34;;;14.02
67966;BMP280;54749;47.850;9.002;2023-05-07T04:51:00;95777.84;;;14.35
67966;BMP280;54749;47.850;9.002;2023-05-07T04:53:27;95774.38;;;14.62
67966;BMP280;54749;47.850;9.002;2023-05-07T04:55:56;95773.66;;;14.86
67966;BMP280;54749;47.850;9.002;2023-05-07T04:58:28;95783.44;;;15.07
67966;BMP280;54749;47.850;9.002;2023-05-07T05:00:59;95789.34;;;15.50
67966;BMP280;54749;47.850;9.002;2023-05-07T05:03:28;95787.19;;;15.79
67966;BMP280;54749;47.850;9.002;2023-05-07T05:05:55;95794.03;;;16.04
67966;BMP280;54749;47.850;9.002;2023-05-07T05:08:23;95788.75;;;16.30
67966;BMP280;54749;47.850;9.002;2023-05-07T05:10:50;95786.94;;;16.55
67966;BMP280;54749;47.850;9.002;2023-05-07T05:13:17;95790.84;;;16.83
67966;BMP280;54749;47.850;9.002;2023-05-07T05:15:45;95784.38;;;17.03
67966;BMP280;54749;47.850;9.002;2023-05-07T05:18:13;95786.81;;;17.44
67966;BMP280;54749;47.850;9.002;2023-05-07T05:20:40;95792.88;;;17.43
67966;BMP280;54749;47.850;9.002;2023-05-07T05:23:07;95797.19;;;17.58
67966;BMP280;54749;47.850;9.002;2023-05-07T05:25:35;95794.81;;;17.88
67966;BMP280;54749;47.850;9.002;2023-05-07T05:28:03;95806.56;;;18.20
67966;BMP280;54749;47.850;9.002;2023-05-07T05:30:32;95802.84;;;18.67
67966;BMP280;54749;47.850;9.002;2023-05-07T05:33:01;95788.41;;;19.33
67966;BMP280;54749;47.850;9.002;2023-05-07T05:35:29;95783.13;;;20.07
67966;BMP280;54749;47.850;9.002;2023-05-07T05:37:58;95792.81;;;20.96
67966;BMP280;54749;47.850;9.002;2023-05-07T05:40:24;95776.81;;;21.49
67966;BMP280;54749;47.850;9.002;2023-05-07T05:42:52;95781.25;;;22.35
67966;BMP280;54749;47.850;9.002;2023-05-07T05:45:19;95777.16;;;23.38
67966;BMP280;54749;47.850;9.002;2023-05-07T05:47:47;95761.34;;;24.04
67966;BMP280;54749;47.850;9.002;2023-05-07T05:50:14;95770.03;;;24.35
67966;BMP280;54749;47.850;9.002;2023-05-07T05:52:41;95763.84;;;24.61
67966;BMP280;54749;47.850;9.002;2023-05-07T05:55:09;95766.41;;;25.53
67966;BMP280;54749;47.850;9.002;2023-05-07T05:57:38;95759.16;;;26.56
67966;BMP280;54749;47.850;9.002;2023-05-07T06:00:05;95760.00;;;26.51
67966;BMP280;54749;47.850;9.002;2023-05-07T06:02:44;95775.22;;;26.65
67966;BMP280;54749;47.850;9.002;2023-05-07T06:05:16;95763.84;;;26.24
67966;BMP280;54749;47.850;9.002;2023-05-07T06:07:45;95774.53;;;25.80
67966;BMP280;54749;47.850;9.002;2023-05-07T06:10:12;95781.78;;;26.26
67966;BMP280;54749;47.850;9.002;2023-05-07T06:12:40;95784.50;;;26.72
67966;BMP280;54749;47.850;9.002;2023-05-07T06:15:08;95789.50;;;26.08
67966;BMP280;54749;47.850;9.002;2023-05-07T06:17:35;95789.41;;;25.97
67966;BMP280;54749;47.850;9.002;2023-05-07T06:20:03;95789.38;;;26.21
67966;BMP280;54749;47.850;9.002;2023-05-07T06:22:30;95786.16;;;26.49
67966;BMP280;54749;47.850;9.002;2023-05-07T06:24:57;95786.81;;;26.62
67966;BMP280;54749;47.850;9.002;2023-05-07T06:27:25;95786.44;;;26.76
67966;BMP280;54749;47.850;9.002;2023-05-07T06:29:55;95787.03;;;26.96
67966;BMP280;54749;47.850;9.002;2023-05-07T06:32:23;95783.00;;;26.65
67966;BMP280;54749;47.850;9.002;2023-05-07T06:34:51;95787.53;;;26.69
67966;BMP280;54749;47.850;9.002;2023-05-07T06:37:18;95805.03;;;26.91
67966;BMP280;54749;47.850;9.002;2023-05-07T06:39:59;95798.88;;;27.09
67966;BMP280;54749;47.850;9.002;2023-05-07T06:42:28;95809.16;;;26.81
67966;BMP280;54749;47.850;9.002;2023-05-07T06:44:58;95824.13;;;25.90
67966;BMP280;54749;47.850;9.002;2023-05-07T06:47:29;95820.88;;;26.00
67966;BMP280;54749;47.850;9.002;2023-05-07T06:49:56;95812.97;;;26.78
67966;BMP280;54749;47.850;9.002;2023-05-07T06:52:27;95813.47;;;28.08
67966;BMP280;54749;47.850;9.002;2023-05-07T06:54:55;95804.47;;;29.27
67966;BMP280;54749;47.850;9.002;2023-05-07T06:57:24;95797.78;;;30.28
67966;BMP280;54749;47.850;9.002;2023-05-07T06:59:51;95802.75;;;30.30
67966;BMP280;54749;47.850;9.002;2023-05-07T07:02:19;95797.34;;;31.05
67966;BMP280;54749;47.850;9.002;2023-05-07T07:04:48;95788.50;;;31.95
67966;BMP280;54749;47.850;9.002;2023-05-07T07:07:16;95797.47;;;32.74
67966;BMP280;54749;47.850;9.002;2023-05-07T07:09:45;95795.81;;;33.69
67966;BMP280;54749;47.850;9.002;2023-05-07T07:12:15;95801.47;;;34.45
67966;BMP280;54749;47.850;9.002;2023-05-07T07:14:42;95801.38;;;34.99
67966;BMP280;54749;47.850;9.002;2023-05-07T07:17:10;95810.47;;;35.40
67966;BMP280;54749;47.850;9.002;2023-05-07T07:19:36;95801.03;;;35.86
67966;BMP280;54749;47.850;9.002;2023-05-07T07:22:04;95790.50;;;36.28
67966;BMP280;54749;47.850;9.002;2023-05-07T07:24:32;95810.56;;;35.77
67966;BMP280;54749;47.850;9.002;2023-05-07T07:27:03;95808.03;;;36.43
67966;BMP280;54749;47.850;9.002;2023-05-07T07:29:32;95798.53;;;37.02
67966;BMP280;54749;47.850;9.002;2023-05-07T07:31:59;95789.78;;;37.06
67966;BMP280;54749;47.850;9.002;2023-05-07T07:34:27;95791.91;;;37.50
67966;BMP280;54749;47.850;9.002;2023-05-07T07:36:54;95793.56;;;37.64
67966;BMP280;54749;47.850;9.002;2023-05-07T07:39:23;95804.63;;;37.48
67966;BMP280;54749;47.850;9.002;2023-05-07T07:41:53;95791.91;;;37.50
67966;BMP280;54749;47.850;9.002;2023-05-07T07:44:21;95807.84;;;37.17
67966;BMP280;54749;47.850;9.002;2023-05-07T07:46:53;95819.69;;;37.20
67966;BMP280;54749;47.850;9.002;2023-05-07T07:49:21;95818.94;;;37.15
67966;BMP280;54749;47.850;9.002;2023-05-07T07:51:49;95822.31;;;37.20
67966;BMP280;54749;47.850;9.002;2023-05-07T07:54:16;95816.34;;;37.37
67966;BMP280;54749;47.850;9.002;2023-05-07T07:56:44;95817.50;;;37.27
67966;BMP280;54749;47.850;9.002;2023-05-07T07:59:13;95812.13;;;37.36
67966;BMP280;54749;47.850;9.002;2023-05-07T08:01:45;95820.31;;;37.12
67966;BMP280;54749;47.850;9.002;2023-05-07T08:04:12;95829.25;;;36.23
67966;BMP280;54749;47.850;9.002;2023-05-07T08:06:41;95825.41;;;36.06
67966;BMP280;54749;47.850;9.002;2023-05-07T08:09:09;95822.50;;;35.56
67966;BMP280;54749;47.850;9.002;2023-05-07T08:11:39;95826.06;;;35.12
67966;BMP280;54749;47.850;9.002;2023-05-07T08:14:06;95819.56;;;34.61
67966;BMP280;54749;47.850;9.002;2023-05-07T08:16:33;95825.31;;;34.14
67966;BMP280;54749;47.850;9.002;2023-05-07T08:19:01;95819.50;;;35.10
67966;BMP280;54749;47.850;9.002;2023-05-07T08:21:28;95824.53;;;35.73
67966;BMP280;54749;47.850;9.002;2023-05-07T08:23:58;95813.66;;;36.31
67966;BMP280;54749;47.850;9.002;2023-05-07T08:26:25;95829.97;;;35.91
67966;BMP280;54749;47.850;9.002;2023-05-07T08:28:52;95821.00;;;35.97
67966;BMP280;54749;47.850;9.002;2023-05-07T08:31:19;95830.53;;;35.26
67966;BMP280;54749;47.850;9.002;2023-05-07T08:33:47;95825.59;;;35.72
67966;BMP280;54749;47.850;9.002;2023-05-07T08:36:14;95834.06;;;35.55
67966;BMP280;54749;47.850;9.002;2023-05-07T08:38:41;95834.75;;;35.22
67966;BMP280;54749;47.850;9.002;2023-05-07T08:41:10;95842.50;;;35.52
67966;BMP280;54749;47.850;9.002;2023-05-07T08:43:40;95833.38;;;35.35
67966;BMP280;54749;47.850;9.002;2023-05-07T08:46:09;95839.75;;;35.00
67966;BMP280;54749;47.850;9.002;2023-05-07T08:48:41;95835.34;;;34.51
67966;BMP280;54749;47.850;9.002;2023-05-07T08:51:15;95834.53;;;34.51
67966;BMP280;54749;47.850;9.002;2023-05-07T08:53:43;95835.84;;;34.68
67966;BMP280;54749;47.850;9.002;2023-05-07T08:56:15;95837.44;;;34.40
67966;BMP280;54749;47.850;9.002;2023-05-07T08:58:43;95844.28;;;34.41
67966;BMP280;54749;47.850;9.002;2023-05-07T09:01:15;95845.84;;;34.27
67966;BMP280;54749;47.850;9.002;2023-05-07T09:03:46;95843.47;;;34.65
67966;BMP280;54749;47.850;9.002;2023-05-07T09:06:15;95843.72;;;34.97
67966;BMP280;54749;47.850;9.002;2023-05-07T09:08:52;95855.28;;;34.91
67966;BMP280;54749;47.850;9.002;2023-05-07T09:11:21;95843.75;;;34.58
67966;BMP280;54749;47.850;9.002;2023-05-07T09:13:55;95842.44;;;34.41
67966;BMP280;54749;47.850;9.002;2023-05-07T09:16:31;95835.31;;;34.90
67966;BMP280;54749;47.850;9.002;2023-05-07T09:18:59;95833.03;;;35.51
67966;BMP280;54749;47.850;9.002;2023-05-07T09:21:28;95830.41;;;36.03
67966;BMP280;54749;47.850;9.002;2023-05-07T09:23:58;95829.31;;;35.71
67966;BMP280;54749;47.850;9.002;2023-05-07T09:26:32;95837.25;;;36.04
67966;BMP280;54749;47.850;9.002;2023-05-07T09:29:03;95833.00;;;35.70
67966;BMP280;54749;47.850;9.002;2023-05-07T09:31:30;95826.47;;;36.10
67966;BMP280;54749;47.850;9.002;2023-05-07T09:33:58;95833.59;;;35.43
67966;BMP280;54749;47.850;9.002;2023-05-07T09:36:28;95823.34;;;35.98
67966;BMP280;54749;47.850;9.002;2023-05-07T09:38:59;95832.34;;;35.92
67966;BMP280;54749;47.850;9.002;2023-05-07T09:41:29;95834.78;;;34.64
67966;BMP280;54749;47.850;9.002;2023-05-07T09:44:09;95827.44;;;34.66
67966;BMP280;54749;47.850;9.002;2023-05-07T09:46:43;95818.72;;;35.24
67966;BMP280;54749;47.850;9.002;2023-05-07T09:49:23;95830.06;;;34.51
67966;BMP280;54749;47.850;9.002;2023-05-07T09:52:01;95816.97;;;34.37
67966;BMP280;54749;47.850;9.002;2023-05-07T09:54:32;95827.94;;;34.05
67966;BMP280;54749;47.850;9.002;2023-05-07T09:57:02;95837.56;;;33.15
67966;BMP280;54749;47.850;9.002;2023-05-07T09:59:31;95837.28;;;33.17
67966;BMP280;54749;47.850;9.002;2023-05-07T10:02:04;95826.81;;;32.72
67966;BMP280;54749;47.850;9.002;2023-05-07T10:04:37;95833.94;;;32.45
67966;BMP280;54749;47.850;9.002;2023-05-07T10:07:05;95827.13;;;32.44
67966;BMP280;54749;47.850;9.002;2023-05-07T10:09:35;95823.78;;;32.23
67966;BMP280;54749;47.850;9.002;2023-05-07T10:12:09;95817.69;;;31.87
67966;BMP280;54749;47.850;9.002;2023-05-07T10:14:36;95825.19;;;31.58
67966;BMP280;54749;47.850;9.002;2023-05-07T10:17:05;95813.66;;;31.54
67966;BMP280;54749;47.850;9.002;2023-05-07T10:19:33;95817.19;;;31.43
67966;BMP280;54749;47.850;9.002;2023-05-07T10:22:04;95819.84;;;31.48
67966;BMP280;54749;47.850;9.002;2023-05-07T10:24:36;95806.34;;;30.93
67966;BMP280;54749;47.850;9.002;2023-05-07T10:27:12;95806.09;;;30.42
67966;BMP280;54749;47.850;9.002;2023-05-07T10:34:54;95789.72;;;32.49
67966;BMP280;54749;47.850;9.002;2023-05-07T10:37:23;95796.13;;;32.67
67966;BMP280;54749;47.850;9.002;2023-05-07T10:39:52;95788.00;;;32.33
67966;BMP280;54749;47.850;9.002;2023-05-07T10:42:19;95782.75;;;31.98
67966;BMP280;54749;47.850;9.002;2023-05-07T10:44:51;95788.16;;;32.22
67966;BMP280;54749;47.850;9.002;2023-05-07T10:47:24;95784.63;;;32.02
67966;BMP280;54749;47.850;9.002;2023-05-07T10:52:28;95798.28;;;30.42
67966;BMP280;54749;47.850;9.002;2023-05-07T10:58:24;95793.09;;;31.62
67966;BMP280;54749;47.850;9.002;2023-05-07T11:01:05;95781.00;;;32.08
67966;BMP280;54749;47.850;9.002;2023-05-07T11:04:12;95779.34;;;31.71
67966;BMP280;54749;47.850;9.002;2023-05-07T11:06:40;95783.47;;;31.42
67966;BMP280;54749;47.850;9.002;2023-05-07T11:09:13;95790.28;;;30.85
67966;BMP280;54749;47.850;9.002;2023-05-07T11:11:52;95792.69;;;30.70
67966;BMP280;54749;47.850;9.002;2023-05-07T11:14:45;95790.06;;;30.33
67966;BMP280;54749;47.850;9.002;2023-05-07T11:17:29;95796.81;;;30.18
67966;BMP280;54749;47.850;9.002;2023-05-07T11:20:06;95794.69;;;29.99
67966;BMP280;54749;47.850;9.002;2023-05-07T11:22:47;95803.25;;;29.84
67966;BMP280;54749;47.850;9.002;2023-05-07T11:25:35;95807.16;;;29.70
67966;BMP280;54749;47.850;9.002;2023-05-07T11:28:17;95811.44;;;29.49
67966;BMP280;54749;47.850;9.002;2023-05-07T11:30:57;95809.75;;;29.70
67966;BMP280;54749;47.850;9.002;2023-05-07T11:33:25;95798.19;;;29.77
67966;BMP280;54749;47.850;9.002;2023-05-07T11:35:55;95803.03;;;29.58
67966;BMP280;54749;47.850;9.002;2023-05-07T11:38:30;95791.78;;;29.41
67966;BMP280;54749;47.850;9.002;2023-05-07T11:41:01;95788.53;;;29.35
67966;BMP280;54749;47.850;9.002;2023-05-07T11:43:29;95797.34;;;29.22
67966;BMP280;54749;47.850;9.002;2023-05-07T11:46:05;95786.47;;;29.36
67966;BMP280;54749;47.850;9.002;2023-05-07T11:48:33;95781.09;;;29.70
67966;BMP280;54749;47.850;9.002;2023-05-07T11:51:02;95778.31;;;29.88
67966;BMP280;54749;47.850;9.002;2023-05-07T11:53:38;95780.28;;;29.53
67966;BMP280;54749;47.850;9.002;2023-05-07T11:56:10;95779.94;;;29.34
67966;BMP280;54749;47.850;9.002;2023-05-07T11:58:38;95784.19;;;29.40
67966;BMP280;54749;47.850;9.002;2023-05-07T12:01:07;95782.19;;;29.19
67966;BMP280;54749;47.850;9.002;2023-05-07T12:03:36;95784.75;;;28.92
67966;BMP280;54749;47.850;9.002;2023-05-07T12:06:10;95785.91;;;28.96
67966;BMP280;54749;47.850;9.002;2023-05-07T12:08:39;95773.16;;;29.22
67966;BMP280;54749;47.850;9.002;2023-05-07T12:11:08;95773.97;;;29.11
67966;BMP280;54749;47.850;9.002;2023-05-07T12:13:36;95769.75;;;29.21
67966;BMP280;54749;47.850;9.002;2023-05-07T12:16:05;95767.97;;;29.11
67966;BMP280;54749;47.850;9.002;2023-05-07T12:18:34;95774.81;;;28.89
67966;BMP280;54749;47.850;9.002;2023-05-07T12:21:04;95764.09;;;28.75
67966;BMP280;54749;47.850;9.002;2023-05-07T12:23:31;95769.31;;;28.30
67966;BMP280;54749;47.850;9.002;2023-05-07T12:25:59;95767.72;;;28.29
67966;BMP280;54749;47.850;9.002;2023-05-07T12:28:27;95764.34;;;28.51
67966;BMP280;54749;47.850;9.002;2023-05-07T12:30:55;95760.94;;;28.17
67966;BMP280;54749;47.850;9.002;2023-05-07T12:33:26;95768.59;;;28.01
67966;BMP280;54749;47.850;9.002;2023-05-07T12:35:55;95770.06;;;27.57
67966;BMP280;54749;47.850;9.002;2023-05-07T12:38:23;95768.09;;;27.81
67966;BMP280;54749;47.850;9.002;2023-05-07T12:40:54;95764.53;;;28.05
67966;BMP280;54749;47.850;9.002;2023-05-07T12:43:25;95772.03;;;28.24
67966;BMP280;54749;47.850;9.002;2023-05-07T12:46:00;95758.91;;;28.19
67966;BMP280;54749;47.850;9.002;2023-05-07T12:48:28;95763.31;;;28.18
67966;BMP280;54749;47.850;9.002;2023-05-07T12:50:57;95754.97;;;28.16
67966;BMP280;54749;47.850;9.002;2023-05-07T12:53:26;95770.44;;;27.60
67966;BMP280;54749;47.850;9.002;2023-05-07T12:55:55;95772.56;;;27.35
67966;BMP280;54749;47.850;9.002;2023-05-07T12:58:49;95776.13;;;27.51
67966;BMP280;54749;47.850;9.002;2023-05-07T13:01:17;95781.00;;;27.59
67966;BMP280;54749;47.850;9.002;2023-05-07T13:03:48;95774.66;;;27.55
67966;BMP280;54749;47.850;9.002;2023-05-07T13:06:17;95776.31;;;27.67
67966;BMP280;54749;47.850;9.002;2023-05-07T13:08:44;95769.66;;;27.42
67966;BMP280;54749;47.850;9.002;2023-05-07T13:11:12;95778.63;;;27.29
67966;BMP280;54749;47.850;9.002;2023-05-07T13:13:40;95784.94;;;27.50
67966;BMP280;54749;47.850;9.002;2023-05-07T13:16:10;95780.84;;;27.43
67966;BMP280;54749;47.850;9.002;2023-05-07T13:18:39;95801.75;;;27.02
67966;BMP280;54749;47.850;9.002;2023-05-07T13:21:07;95801.03;;;26.36
67966;BMP280;54749;47.850;9.002;2023-05-07T13:23:34;95810.00;;;25.07
67966;BMP280;54749;47.850;9.002;2023-05-07T13:26:01;95830.19;;;23.01
67966;BMP280;54749;47.850;9.002;2023-05-07T13:28:37;95819.94;;;22.68
67966;BMP280;54749;47.850;9.002;2023-05-07T13:31:04;95820.13;;;22.73
67966;BMP280;54749;47.850;9.002;2023-05-07T13:33:31;95830.66;;;21.50
67966;BMP280;54749;47.850;9.002;2023-05-07T13:35:59;95840.06;;;20.24
67966;BMP280;54749;47.850;9.002;2023-05-07T13:38:27;95836.59;;;20.03
67966;BMP280;54749;47.850;9.002;2023-05-07T13:40:55;95815.69;;;20.91
67966;BMP280;54749;47.850;9.002;2023-05-07T13:43:22;95820.44;;;21.22
67966;BMP280;54749;47.850;9.002;2023-05-07T13:45:49;95805.94;;;21.01
67966;BMP280;54749;47.850;9.002;2023-05-07T13:48:16;95807.69;;;21.49
67966;BMP280;54749;47.850;9.002;2023-05-07T13:50:44;95792.91;;;21.98
67966;BMP280;54749;47.850;9.002;2023-05-07T13:53:11;95790.91;;;22.27
67966;BMP280;54749;47.850;9.002;2023-05-07T13:55:39;95794.84;;;22.23
67966;BMP280;54749;47.850;9.002;2023-05-07T13:58:06;95794.44;;;22.19
67966;BMP280;54749;47.850;9.002;2023-05-07T14:00:33;95795.81;;;21.89
67966;BMP280;54749;47.850;9.002;2023-05-07T14:03:01;95798.25;;;21.35
67966;BMP280;54749;47.850;9.002;2023-05-07T14:05:29;95791.56;;;21.41
67966;BMP280;54749;47.850;9.002;2023-05-07T14:07:59;95806.81;;;21.07
67966;BMP280;54749;47.850;9.002;2023-05-07T14:10:27;95798.34;;;20.93
67966;BMP280;54749;47.850;9.002;2023-05-07T14:12:54;95790.09;;;21.11
67966;BMP280;54749;47.850;9.002;2023-05-07T14:15:22;95790.94;;;21.39
67966;BMP280;54749;47.850;9.002;2023-05-07T14:17:49;95780.34;;;21.48
67966;BMP280;54749;47.850;9.002;2023-05-07T14:20:16;95785.00;;;21.18
67966;BMP280;54749;47.850;9.002;2023-05-07T14:22:43;95788.78;;;21.22
67966;BMP280;54749;47.850;9.002;2023-05-07T14:25:11;95795.31;;;21.38
67966;BMP280;54749;47.850;9.002;2023-05-07T14:27:38;95786.56;;;21.33
67966;BMP280;54749;47.850;9.002;2023-05-07T14:30:06;95792.91;;;21.37
67966;BMP280;54749;47.850;9.002;2023-05-07T14:32:34;95789.72;;;21.35